Time;durP1;ratioP1;P1;durP2;ratioP2;P2;SDS_P1;SDS_P2;PMS_P1;PMS_P2;Temp;Humidity;BMP_temperature;BMP_pressure;BME280_temperature;BME280_humidity;BME280_pressure;Samples;Min_cycle;Max_cycle;Signal;HPM_P1;HPM_P2
2021/10/10 00:00:32;;;;;;;9.45;7.88;;;;;;;1.05;100.00;93862.06;2090726;28;20025;-89
2021/10/10 00:01:33;;;;;;;12.35;8.25;;;;;;;0.94;100.00;93865.19;2099097;28;20025;-90
2021/10/10 00:02:34;;;;;;;10.85;7.82;;;;;;;0.93;100.00;93866.31;2107126;28;20047;-87
2021/10/10 00:03:35;;;;;;;10.40;8.27;;;;;;;0.92;100.00;93869.25;2090773;28;20025;-90
2021/10/10 00:04:36;;;;;;;12.80;7.82;;;;;;;0.91;100.00;93868.50;2090804;28;20028;-90
2021/10/10 00:05:37;;;;;;;11.55;8.02;;;;;;;0.97;100.00;93867.16;2090742;28;20496;-90
2021/10/10 00:06:38;;;;;;;12.82;9.27;;;;;;;1.00;100.00;93863.84;2090734;28;20017;-89
2021/10/10 00:07:41;;;;;;;10.82;8.48;;;;;;;0.99;100.00;93870.22;2098675;28;20072;-88
2021/10/10 00:08:42;;;;;;;10.25;7.88;;;;;;;0.87;100.00;93867.63;2099301;28;20032;-90
2021/10/10 00:09:43;;;;;;;13.05;8.82;;;;;;;0.89;100.00;93865.44;2098672;28;20465;-91
2021/10/10 00:10:44;;;;;;;9.90;8.23;;;;;;;0.90;100.00;93863.56;2098825;28;20017;-87
2021/10/10 00:11:45;;;;;;;12.70;8.65;;;;;;;0.95;100.00;93866.72;2090589;28;20095;-89
2021/10/10 00:12:46;;;;;;;14.38;8.10;;;;;;;0.85;100.00;93859.31;2107085;28;20384;-89
2021/10/10 00:13:47;;;;;;;12.90;8.20;;;;;;;0.82;100.00;93873.13;2090613;28;20028;-91
2021/10/10 00:14:47;;;;;;;10.43;7.80;;;;;;;0.97;100.00;93864.53;2090524;28;20032;-88
2021/10/10 00:15:48;;;;;;;12.32;8.18;;;;;;;0.79;100.00;93867.78;2090618;28;20029;-89
2021/10/10 00:16:49;;;;;;;14.95;8.45;;;;;;;0.88;100.00;93858.66;2095769;28;20031;-89
2021/10/10 00:17:51;;;;;;;14.15;8.23;;;;;;;0.86;100.00;93863.47;2105980;28;20063;-89
2021/10/10 00:18:52;;;;;;;9.65;8.00;;;;;;;0.85;100.00;93866.44;2098843;28;20423;-93
2021/10/10 00:19:53;;;;;;;13.00;8.57;;;;;;;0.74;100.00;93872.16;2098889;28;20029;-90
2021/10/10 00:20:54;;;;;;;14.70;8.45;;;;;;;0.82;100.00;93867.09;2098770;28;20044;-90
2021/10/10 00:21:54;;;;;;;13.55;8.93;;;;;;;0.88;100.00;93868.38;2098882;28;20719;-90
2021/10/10 00:22:55;;;;;;;12.93;8.75;;;;;;;0.93;100.00;93866.31;2100338;28;20071;-87
2021/10/10 00:23:56;;;;;;;12.20;8.07;;;;;;;0.91;100.00;93871.13;2098822;28;20520;-90
2021/10/10 00:24:57;;;;;;;12.68;8.45;;;;;;;0.69;100.00;93866.38;2098574;28;20027;-89
2021/10/10 00:25:58;;;;;;;10.98;8.25;;;;;;;0.67;100.00;93869.34;2095536;28;20638;-91
2021/10/10 00:26:59;;;;;;;13.27;8.40;;;;;;;0.73;100.00;93868.00;2107067;28;20028;-89
2021/10/10 00:28:00;;;;;;;13.38;8.02;;;;;;;0.72;100.00;93863.84;2106895;28;20129;-85
2021/10/10 00:29:01;;;;;;;13.27;7.93;;;;;;;0.78;100.00;93861.75;2090642;28;20056;-89
2021/10/10 00:30:04;;;;;;;11.82;7.72;;;;;;;0.67;100.00;93865.97;2090881;28;20035;-89
2021/10/10 00:31:05;;;;;;;10.55;7.97;;;;;;;0.71;100.00;93858.94;2091242;28;20112;-90
2021/10/10 00:32:06;;;;;;;9.38;7.07;;;;;;;0.74;100.00;93856.38;2098531;28;20382;-87
2021/10/10 00:33:07;;;;;;;11.05;8.00;;;;;;;0.64;100.00;93864.00;2101740;28;20030;-87
2021/10/10 00:34:08;;;;;;;11.52;7.90;;;;;;;0.62;100.00;93853.06;2106878;28;20056;-87
2021/10/10 00:35:09;;;;;;;10.40;7.47;;;;;;;0.58;100.00;93858.22;2093634;28;20032;-89
2021/10/10 00:36:13;;;;;;;11.10;8.07;;;;;;;0.56;100.00;93857.75;2097946;28;20063;-91
2021/10/10 00:37:14;;;;;;;13.25;7.93;;;;;;;0.53;100.00;93849.78;2098763;28;20051;-87
2021/10/10 00:38:15;;;;;;;12.20;8.57;;;;;;;0.64;100.00;93856.09;2098577;28;20052;-90
2021/10/10 00:39:16;;;;;;;9.93;7.65;;;;;;;0.64;100.00;93853.47;2102830;28;20028;-90
2021/10/10 00:40:17;;;;;;;15.38;8.10;;;;;;;0.56;100.00;93851.75;2115302;28;20026;-87
2021/10/10 00:41:18;;;;;;;10.52;7.15;;;;;;;0.48;100.00;93853.41;2098740;28;20031;-90
2021/10/10 00:42:19;;;;;;;14.75;8.57;;;;;;;0.36;100.00;93853.47;2098669;28;20520;-87
2021/10/10 00:43:20;;;;;;;12.40;8.63;;;;;;;0.34;100.00;93853.75;2093589;28;20028;-88
2021/10/10 00:44:21;;;;;;;11.23;7.75;;;;;;;0.43;100.00;93846.50;2098870;28;20078;-90
2021/10/10 00:45:22;;;;;;;12.63;7.65;;;;;;;0.47;100.00;93847.38;2098628;28;20016;-90
2021/10/10 00:46:23;;;;;;;10.55;8.18;;;;;;;0.50;100.00;93849.34;2106964;28;20085;-90
2021/10/10 00:47:24;;;;;;;10.98;8.18;;;;;;;0.57;100.00;93842.75;2106150;28;20043;-91
2021/10/10 00:48:25;;;;;;;14.63;8.18;;;;;;;0.48;100.00;93843.66;2098257;28;20025;-89
2021/10/10 00:49:26;;;;;;;14.63;8.05;;;;;;;0.63;100.00;93846.69;2098665;28;20021;-87
2021/10/10 00:50:28;;;;;;;9.40;7.90;;;;;;;0.48;100.00;93838.41;2098711;28;20020;-87
2021/10/10 00:51:33;;;;;;;10.80;7.80;;;;;;;0.62;100.00;93845.94;2098840;28;20029;-88
2021/10/10 00:52:40;;;;;;;9.27;7.53;;;;;;;0.68;100.00;93847.22;2101032;28;20424;-87
2021/10/10 00:53:42;;;;;;;12.07;7.55;;;;;;;0.64;100.00;93835.81;2099626;28;20086;-89
2021/10/10 00:54:47;;;;;;;11.10;8.57;;;;;;;0.49;100.00;93839.94;2090388;28;20474;-89
2021/10/10 00:55:54;;;;;;;12.85;8.20;;;;;;;0.55;100.00;93840.47;2092038;28;20028;-91
2021/10/10 00:56:57;;;;;;;11.45;8.63;;;;;;;0.57;100.00;93843.53;2101357;27;20111;-88
2021/10/10 00:58:01;;;;;;;14.75;8.40;;;;;;;0.45;100.00;93833.81;2106718;28;20106;-90
2021/10/10 00:59:04;;;;;;;13.82;8.10;;;;;;;0.40;100.00;93834.03;2093089;28;20033;-89
2021/10/10 01:00:08;;;;;;;10.25;7.85;;;;;;;0.50;100.00;93838.81;2099267;28;20463;-88
2021/10/10 01:01:09;;;;;;;11.20;8.15;;;;;;;0.32;100.00;93836.81;2107286;28;20211;-88
2021/10/10 01:02:11;;;;;;;9.70;7.95;;;;;;;0.39;100.00;93837.00;2115341;28;20035;-88
2021/10/10 01:03:12;;;;;;;13.75;8.80;;;;;;;0.36;100.00;93841.06;2107005;28;20069;-90
2021/10/10 01:04:14;;;;;;;12.23;7.80;;;;;;;0.38;100.00;93840.72;2098993;28;20039;-86
2021/10/10 01:05:15;;;;;;;13.35;7.97;;;;;;;0.43;100.00;93838.63;2098734;28;20025;-90
2021/10/10 01:06:16;;;;;;;10.65;7.97;;;;;;;0.36;100.00;93840.31;2102410;28;20025;-86
2021/10/10 01:07:20;;;;;;;10.63;8.63;;;;;;;0.30;100.00;93839.75;2102777;28;20024;-89
2021/10/10 01:08:21;;;;;;;10.20;7.95;;;;;;;0.26;100.00;93836.25;2091578;28;20048;-89
2021/10/10 01:09:22;;;;;;;12.23;9.15;;;;;;;0.35;100.00;93842.19;2097947;28;20496;-90
2021/10/10 01:10:23;;;;;;;12.13;8.35;;;;;;;0.33;100.00;93836.47;2090189;28;20083;-90
2021/10/10 01:11:28;;;;;;;12.95;8.80;;;;;;;0.26;100.00;93831.00;2098601;28;20024;-86
2021/10/10 01:12:29;;;;;;;11.93;8.65;;;;;;;0.29;100.00;93827.72;2113551;27;20334;-87
2021/10/10 01:13:30;;;;;;;12.82;7.88;;;;;;;0.40;100.00;93825.41;2106373;28;20504;-90
2021/10/10 01:14:33;;;;;;;12.40;7.72;;;;;;;0.34;100.00;93827.47;2105008;28;20024;-90
2021/10/10 01:15:34;;;;;;;11.77;7.82;;;;;;;0.28;100.00;93833.31;2107126;28;20468;-91
2021/10/10 01:16:35;;;;;;;17.98;8.15;;;;;;;0.38;100.00;93825.72;2098359;28;20024;-87
2021/10/10 01:17:37;;;;;;;11.38;8.40;;;;;;;0.24;100.00;93823.44;2098435;28;20028;-89
2021/10/10 01:18:37;;;;;;;15.77;8.73;;;;;;;0.23;100.00;93821.94;2098787;28;20073;-88
2021/10/10 01:19:41;;;;;;;13.07;9.02;;;;;;;0.19;100.00;93822.94;2098444;28;20531;-87
2021/10/10 01:20:46;;;;;;;10.77;8.32;;;;;;;0.31;100.00;93822.09;2091355;28;20047;-88
2021/10/10 01:21:55;;;;;;;12.38;8.20;;;;;;;0.23;100.00;93826.44;2099717;28;20027;-88
2021/10/10 01:22:56;;;;;;;11.13;7.72;;;;;;;0.28;100.00;93826.19;2099463;28;20469;-90
2021/10/10 01:23:57;;;;;;;12.02;8.40;;;;;;;0.24;100.00;93825.31;2103780;28;20027;-89
2021/10/10 01:24:58;;;;;;;9.07;7.70;;;;;;;0.18;100.00;93829.28;2098431;28;20055;-88
2021/10/10 01:25:59;;;;;;;11.25;8.02;;;;;;;0.24;100.00;93823.44;2101761;28;20111;-86
2021/10/10 01:27:00;;;;;;;9.60;7.82;;;;;;;0.20;100.00;93827.09;2098350;28;20043;-93
2021/10/10 01:28:01;;;;;;;13.35;7.95;;;;;;;0.07;100.00;93826.34;2098692;28;20024;-91
2021/10/10 01:29:03;;;;;;;11.32;8.20;;;;;;;0.05;100.00;93825.91;2098988;28;20274;-93
2021/10/10 01:30:04;;;;;;;12.10;8.43;;;;;;;0.00;100.00;93826.16;2099033;28;20020;-85
2021/10/10 01:31:05;;;;;;;14.48;8.50;;;;;;;0.08;100.00;93830.50;2107119;28;20020;-91
2021/10/10 01:32:07;;;;;;;12.57;7.60;;;;;;;0.20;100.00;93822.59;2107269;28;20524;-90
2021/10/10 01:33:10;;;;;;;13.95;8.18;;;;;;;0.11;100.00;93824.56;2099053;28;20023;-91
2021/10/10 01:34:11;;;;;;;15.35;7.97;;;;;;;-0.02;100.00;93821.19;2099343;28;20241;-91
2021/10/10 01:35:12;;;;;;;13.90;9.02;;;;;;;0.04;100.00;93823.59;2107385;28;20020;-88
2021/10/10 01:36:14;;;;;;;13.52;8.75;;;;;;;-0.07;100.00;93816.19;2098846;28;20024;-89
2021/10/10 01:37:16;;;;;;;14.43;8.57;;;;;;;-0.04;100.00;93815.53;2098767;28;20024;-89
2021/10/10 01:38:18;;;;;;;10.73;7.88;;;;;;;-0.05;100.00;93813.97;2098775;28;20091;-87
2021/10/10 01:39:19;;;;;;;10.73;7.57;;;;;;;0.06;100.00;93816.16;2106793;28;20024;-90
2021/10/10 01:40:20;;;;;;;11.63;8.18;;;;;;;-0.08;100.00;93816.53;2098533;28;20021;-89
2021/10/10 01:41:21;;;;;;;12.65;8.15;;;;;;;-0.03;100.00;93811.03;2106749;28;20028;-88
2021/10/10 01:42:22;;;;;;;11.35;8.35;;;;;;;-0.15;100.00;93813.66;2098331;28;20021;-90
2021/10/10 01:43:23;;;;;;;13.60;8.68;;;;;;;-0.02;100.00;93807.31;2098055;28;20079;-89
2021/10/10 01:44:24;;;;;;;11.93;8.55;;;;;;;-0.07;100.00;93805.66;2098248;28;20016;-88
2021/10/10 01:45:25;;;;;;;15.55;8.75;;;;;;;-0.08;100.00;93806.00;2098105;28;20024;-89
2021/10/10 01:46:26;;;;;;;14.10;9.02;;;;;;;-0.18;100.00;93804.56;2089841;28;20021;-87
2021/10/10 01:47:27;;;;;;;14.30;9.02;;;;;;;-0.15;100.00;93806.56;2098096;28;20023;-90
2021/10/10 01:48:28;;;;;;;10.68;8.13;;;;;;;-0.17;100.00;93802.75;2106329;28;20056;-90
2021/10/10 01:49:29;;;;;;;12.07;8.10;;;;;;;-0.08;100.00;93800.75;2114937;28;20377;-86
2021/10/10 01:50:32;;;;;;;11.48;8.70;;;;;;;0.05;100.00;93798.88;2114909;28;20030;-90
2021/10/10 01:51:34;;;;;;;10.38;7.88;;;;;;;-0.11;100.00;93804.78;2106651;28;20099;-88
2021/10/10 01:52:37;;;;;;;15.35;8.00;;;;;;;-0.10;100.00;93808.19;2106753;28;20789;-90
2021/10/10 01:53:39;;;;;;;12.55;8.75;;;;;;;-0.13;100.00;93807.00;2106746;28;20023;-87
2021/10/10 01:54:39;;;;;;;11.68;8.43;;;;;;;-0.04;100.00;93804.25;2106586;28;20019;-86
2021/10/10 01:55:40;;;;;;;11.27;8.35;;;;;;;-0.10;100.00;93803.69;2114802;28;20491;-90
2021/10/10 01:56:41;;;;;;;13.45;8.38;;;;;;;-0.03;100.00;93805.78;2114817;28;20019;-90
2021/10/10 01:57:42;;;;;;;13.55;7.93;;;;;;;0.03;100.00;93798.41;2106328;28;20039;-91
2021/10/10 01:58:43;;;;;;;12.25;7.63;;;;;;;-0.14;100.00;93807.31;2114068;28;20409;-88
2021/10/10 01:59:44;;;;;;;11.82;7.93;;;;;;;-0.15;100.00;93800.53;2105462;28;20020;-88
2021/10/10 02:00:45;;;;;;;12.80;8.18;;;;;;;-0.18;100.00;93803.81;2102286;28;20028;-87
2021/10/10 02:01:46;;;;;;;12.48;8.40;;;;;;;-0.21;100.00;93810.50;2106126;28;20465;-89
2021/10/10 02:02:47;;;;;;;11.48;8.32;;;;;;;-0.15;100.00;93798.66;2106234;28;20024;-90
2021/10/10 02:03:48;;;;;;;11.18;7.95;;;;;;;-0.04;100.00;93799.00;2106203;28;20028;-90
2021/10/10 02:04:50;;;;;;;12.18;8.20;;;;;;;-0.15;100.00;93801.28;2098182;28;20031;-87
2021/10/10 02:07:53;;;;;;;;;;;;;;;-0.02;100.00;93797.56;2148934;27;20525;-83
2021/10/10 02:08:54;;;;;;;13.70;8.23;;;;;;;-0.10;100.00;93801.06;2130416;27;19911;-83
2021/10/10 02:09:55;;;;;;;14.20;7.47;;;;;;;-0.18;100.00;93794.06;2121912;27;20423;-81
2021/10/10 02:10:56;;;;;;;10.80;7.88;;;;;;;-0.16;100.00;93799.00;2130606;27;20051;-81
2021/10/10 02:11:56;;;;;;;12.20;7.78;;;;;;;-0.14;100.00;93797.56;2148561;27;20097;-81
2021/10/10 02:12:57;;;;;;;10.10;7.68;;;;;;;-0.15;100.00;93790.03;2138944;27;20078;-81
2021/10/10 02:13:58;;;;;;;13.18;8.57;;;;;;;-0.11;100.00;93794.28;2130477;27;20031;-81
2021/10/10 02:14:59;;;;;;;12.55;8.38;;;;;;;-0.10;100.00;93797.69;2130302;27;20075;-80
2021/10/10 02:16:00;;;;;;;14.15;8.63;;;;;;;-0.16;100.00;93791.13;2130394;27;20026;-81
2021/10/10 02:17:01;;;;;;;12.27;8.65;;;;;;;-0.12;100.00;93795.38;2121851;28;20026;-82
2021/10/10 02:18:02;;;;;;;14.50;9.10;;;;;;;-0.16;100.00;93789.25;2113366;28;20036;-83
2021/10/10 02:19:03;;;;;;;11.23;9.40;;;;;;;-0.27;100.00;93786.31;2121911;27;20071;-80
2021/10/10 02:20:08;;;;;;;11.63;8.77;;;;;;;-0.19;100.00;93787.28;2130422;27;20027;-81
2021/10/10 02:21:09;;;;;;;15.23;9.20;;;;;;;-0.25;100.00;93786.00;2122470;27;20054;-81
2021/10/10 02:22:10;;;;;;;12.20;8.13;;;;;;;-0.30;100.00;93787.00;2113384;27;20077;-83
2021/10/10 02:23:11;;;;;;;11.65;9.02;;;;;;;-0.27;100.00;93788.94;2121736;27;20015;-81
2021/10/10 02:24:12;;;;;;;14.77;9.00;;;;;;;-0.29;100.00;93783.25;2121723;28;20491;-82
2021/10/10 02:25:12;;;;;;;11.13;8.30;;;;;;;-0.28;100.00;93789.28;2121961;27;20031;-82
2021/10/10 02:26:13;;;;;;;10.15;8.32;;;;;;;-0.29;100.00;93796.38;2131198;27;20031;-84
2021/10/10 02:27:14;;;;;;;12.05;9.25;;;;;;;-0.18;100.00;93788.81;2130291;27;20061;-83
2021/10/10 02:28:15;;;;;;;16.20;8.98;;;;;;;-0.22;100.00;93780.09;2130183;27;20030;-82
2021/10/10 02:29:16;;;;;;;13.40;8.88;;;;;;;-0.37;100.00;93786.00;2121767;27;20027;-81
2021/10/10 02:30:17;;;;;;;14.93;9.48;;;;;;;-0.31;100.00;93788.09;2121946;27;20059;-81
2021/10/10 02:31:18;;;;;;;11.82;8.82;;;;;;;-0.26;100.00;93782.59;2138940;27;20074;-81
2021/10/10 02:32:19;;;;;;;13.32;9.32;;;;;;;-0.29;100.00;93783.25;2138894;27;20049;-80
2021/10/10 02:33:20;;;;;;;14.45;9.68;;;;;;;-0.13;100.00;93779.94;2138889;27;20053;-81
2021/10/10 02:34:21;;;;;;;12.10;8.63;;;;;;;-0.25;100.00;93780.75;2139610;27;20025;-83
2021/10/10 02:35:22;;;;;;;14.50;9.38;;;;;;;-0.22;100.00;93785.34;2138978;27;20576;-83
2021/10/10 02:36:23;;;;;;;14.43;9.63;;;;;;;-0.16;100.00;93783.25;2130487;27;20027;-81
2021/10/10 02:37:24;;;;;;;11.23;9.25;;;;;;;-0.33;100.00;93790.25;2121644;27;20118;-82
2021/10/10 02:38:25;;;;;;;18.48;9.95;;;;;;;-0.22;100.00;93780.09;2121995;27;20061;-81
2021/10/10 02:39:25;;;;;;;16.35;10.02;;;;;;;-0.23;100.00;93783.78;2121692;27;20023;-80
2021/10/10 02:40:26;;;;;;;13.48;9.30;;;;;;;-0.28;100.00;93786.66;2121773;27;20027;-82
2021/10/10 02:41:27;;;;;;;15.05;9.70;;;;;;;-0.27;100.00;93783.69;2121738;27;20090;-82
2021/10/10 02:42:28;;;;;;;15.70;9.35;;;;;;;-0.22;100.00;93790.59;2121803;27;20179;-83
2021/10/10 02:43:29;;;;;;;13.05;9.80;;;;;;;-0.19;100.00;93787.28;2121619;27;20038;-82
2021/10/10 02:44:30;;;;;;;14.55;10.45;;;;;;;-0.14;100.00;93794.19;2121591;27;20085;-81
2021/10/10 02:45:32;;;;;;;11.73;9.57;;;;;;;-0.24;100.00;93784.91;2138906;27;20030;-81
2021/10/10 02:46:33;;;;;;;13.45;9.77;;;;;;;-0.19;100.00;93792.53;2139524;27;20026;-82
2021/10/10 02:47:34;;;;;;;12.25;9.95;;;;;;;-0.21;100.00;93786.09;2139347;27;20030;-81
2021/10/10 02:48:35;;;;;;;13.68;10.25;;;;;;;-0.30;100.00;93784.34;2139490;27;20026;-83
2021/10/10 02:49:36;;;;;;;15.27;9.65;;;;;;;-0.23;100.00;93786.41;2138959;27;20111;-80
2021/10/10 02:50:37;;;;;;;15.68;10.85;;;;;;;-0.21;100.00;93791.34;2130285;27;20084;-81
2021/10/10 02:51:38;;;;;;;15.60;10.48;;;;;;;-0.32;100.00;93791.03;2130242;27;20068;-81
2021/10/10 02:52:39;;;;;;;13.20;10.18;;;;;;;-0.31;100.00;93788.09;2130167;27;20031;-82
2021/10/10 02:53:40;;;;;;;13.57;9.85;;;;;;;-0.32;100.00;93796.28;2130343;27;20097;-81
2021/10/10 02:54:40;;;;;;;17.60;11.43;;;;;;;-0.25;100.00;93786.00;2129997;27;20165;-82
2021/10/10 02:55:41;;;;;;;12.13;9.98;;;;;;;-0.24;100.00;93792.00;2129952;27;20027;-81
2021/10/10 02:56:42;;;;;;;15.45;9.68;;;;;;;-0.36;100.00;93790.16;2121676;27;20061;-83
2021/10/10 02:57:43;;;;;;;14.00;10.18;;;;;;;-0.27;100.00;93785.53;2121575;27;20023;-83
2021/10/10 02:58:44;;;;;;;17.50;10.95;;;;;;;-0.16;100.00;93784.00;2130047;27;20026;-83
2021/10/10 02:59:46;;;;;;;14.15;10.00;;;;;;;-0.24;100.00;93787.53;2113086;28;20050;-82
2021/10/10 03:00:47;;;;;;;16.08;10.63;;;;;;;-0.23;100.00;93777.78;2113481;27;20023;-82
2021/10/10 03:01:48;;;;;;;14.85;10.85;;;;;;;-0.29;100.00;93785.88;2121363;27;20490;-82
2021/10/10 03:02:49;;;;;;;15.50;10.77;;;;;;;-0.34;100.00;93783.50;2138678;27;20387;-81
2021/10/10 03:03:50;;;;;;;13.40;10.43;;;;;;;-0.35;100.00;93787.22;2138580;27;20034;-82
2021/10/10 03:04:54;;;;;;;14.10;10.93;;;;;;;-0.31;100.00;93792.56;2121893;27;20388;-82
2021/10/10 03:05:55;;;;;;;15.88;11.02;;;;;;;-0.32;100.00;93796.28;2121983;27;20051;-82
2021/10/10 03:06:56;;;;;;;14.10;10.80;;;;;;;-0.26;100.00;93789.72;2121230;27;20023;-83
2021/10/10 03:07:57;;;;;;;18.02;11.88;;;;;;;-0.29;100.00;93795.63;2138580;27;20062;-81
2021/10/10 03:08:58;;;;;;;17.92;11.70;;;;;;;-0.33;100.00;93792.13;2138737;27;20026;-81
2021/10/10 03:09:58;;;;;;;16.70;11.43;;;;;;;-0.28;100.00;93787.41;2138630;27;20026;-82
2021/10/10 03:11:00;;;;;;;17.20;10.98;;;;;;;-0.28;100.00;93789.28;2138709;27;20031;-82
2021/10/10 03:12:01;;;;;;;17.15;11.25;;;;;;;-0.46;100.00;93791.38;2123940;27;20030;-82
2021/10/10 03:13:02;;;;;;;14.13;10.35;;;;;;;-0.41;100.00;93793.00;2121462;27;20031;-82
2021/10/10 03:14:03;;;;;;;17.00;10.85;;;;;;;-0.45;100.00;93786.88;2121439;27;20035;-81
2021/10/10 03:15:04;;;;;;;14.93;10.93;;;;;;;-0.35;100.00;93778.53;2121452;27;20030;-82
2021/10/10 03:16:05;;;;;;;16.20;10.85;;;;;;;-0.42;100.00;93783.59;2130082;27;20026;-83
2021/10/10 03:17:06;;;;;;;14.57;11.18;;;;;;;-0.42;100.00;93783.59;2121512;27;20035;-82
2021/10/10 03:18:07;;;;;;;14.65;10.65;;;;;;;-0.43;100.00;93785.47;2121626;27;20456;-81
2021/10/10 03:19:08;;;;;;;18.48;11.45;;;;;;;-0.37;100.00;93786.75;2123416;27;20059;-81
2021/10/10 03:20:09;;;;;;;16.10;10.77;;;;;;;-0.26;100.00;93779.97;2115875;28;20032;-84
2021/10/10 03:21:10;;;;;;;16.45;10.77;;;;;;;-0.28;100.00;93782.16;2107379;28;20031;-82
2021/10/10 03:22:11;;;;;;;15.38;10.60;;;;;;;-0.34;100.00;93787.97;2115918;28;20031;-82
2021/10/10 03:23:12;;;;;;;15.02;10.00;;;;;;;-0.43;100.00;93789.97;2115604;28;20476;-81
2021/10/10 03:24:13;;;;;;;17.35;11.50;;;;;;;-0.36;100.00;93788.28;2116006;28;20023;-82
2021/10/10 03:25:14;;;;;;;13.75;10.95;;;;;;;-0.36;100.00;93785.66;2124209;27;20023;-82
2021/10/10 03:26:15;;;;;;;15.85;10.70;;;;;;;-0.35;100.00;93786.44;2117532;27;20088;-83
2021/10/10 03:27:16;;;;;;;15.32;10.60;;;;;;;-0.33;100.00;93786.88;2115562;28;20028;-83
2021/10/10 03:28:17;;;;;;;19.40;11.27;;;;;;;-0.38;100.00;93789.72;2115569;28;20027;-82
2021/10/10 03:29:17;;;;;;;14.23;10.50;;;;;;;-0.31;100.00;93784.66;2115863;27;20051;-83
2021/10/10 03:30:18;;;;;;;13.27;10.88;;;;;;;-0.40;100.00;93789.28;2124114;27;20027;-82
2021/10/10 03:31:19;;;;;;;18.08;11.20;;;;;;;-0.35;100.00;93789.84;2115703;28;20030;-83
2021/10/10 03:32:20;;;;;;;12.57;9.77;;;;;;;-0.33;100.00;93779.00;2107014;28;20545;-83
2021/10/10 03:33:21;;;;;;;17.45;10.43;;;;;;;-0.39;100.00;93788.97;2107284;28;20031;-82
2021/10/10 03:34:22;;;;;;;14.68;10.18;;;;;;;-0.38;100.00;93787.09;2115659;28;20032;-82
2021/10/10 03:35:23;;;;;;;17.70;11.38;;;;;;;-0.32;100.00;93791.03;2124166;27;20019;-81
2021/10/10 03:36:24;;;;;;;12.23;9.75;;;;;;;-0.31;100.00;93792.56;2129928;27;20015;-83
2021/10/10 03:37:25;;;;;;;14.20;10.43;;;;;;;-0.35;100.00;93787.22;2123995;27;20034;-82
2021/10/10 03:38:26;;;;;;;14.23;9.85;;;;;;;-0.46;100.00;93790.59;2115601;28;20131;-81
2021/10/10 03:39:27;;;;;;;17.52;10.50;;;;;;;-0.47;100.00;93796.97;2124122;27;20030;-83
2021/10/10 03:40:28;;;;;;;15.07;10.75;;;;;;;-0.35;100.00;93795.09;2124213;27;20079;-83
2021/10/10 03:41:29;;;;;;;14.18;9.65;;;;;;;-0.42;100.00;93792.25;2124265;27;20027;-82
2021/10/10 03:42:30;;;;;;;14.70;10.35;;;;;;;-0.48;100.00;93792.78;2124092;27;20103;-82
2021/10/10 03:43:31;;;;;;;16.75;10.50;;;;;;;-0.36;100.00;93795.41;2115542;28;20031;-83
2021/10/10 03:44:32;;;;;;;12.50;9.77;;;;;;;-0.33;100.00;93786.88;2124211;27;20027;-83
2021/10/10 03:45:33;;;;;;;14.32;10.90;;;;;;;-0.45;100.00;93792.88;2132705;27;20022;-83
2021/10/10 03:46:34;;;;;;;13.80;10.10;;;;;;;-0.45;100.00;93792.13;2133266;27;20022;-81
2021/10/10 03:47:35;;;;;;;14.68;10.18;;;;;;;-0.51;100.00;93786.34;2132581;27;20042;-82
2021/10/10 03:48:36;;;;;;;13.45;10.65;;;;;;;-0.54;100.00;93789.63;2132736;27;20066;-82
2021/10/10 03:49:37;;;;;;;15.18;11.32;;;;;;;-0.48;100.00;93793.56;2132563;27;20038;-82
2021/10/10 03:50:38;;;;;;;13.25;9.43;;;;;;;-0.47;100.00;93792.47;2132661;27;20026;-84
2021/10/10 03:51:38;;;;;;;15.77;11.38;;;;;;;-0.48;100.00;93790.16;2123922;27;20487;-83
2021/10/10 03:52:41;;;;;;;16.17;9.73;;;;;;;-0.45;100.00;93792.13;2124111;27;20027;-82
2021/10/10 03:56:03;;;;;;;13.65;9.50;;;;;;;-0.56;100.00;93789.94;2131839;27;20026;-83
2021/10/10 03:57:04;;;;;;;15.75;10.32;;;;;;;-0.53;100.00;93794.56;2132593;27;20027;-81
2021/10/10 03:58:07;;;;;;;13.73;10.98;;;;;;;-0.43;100.00;93795.97;2133167;27;20023;-82
2021/10/10 03:59:08;;;;;;;15.07;10.90;;;;;;;-0.42;100.00;93797.50;2123893;27;20023;-83
2021/10/10 04:00:12;;;;;;;12.73;10.20;;;;;;;-0.60;100.00;93791.69;2115530;28;20840;-82
2021/10/10 04:01:13;;;;;;;15.73;10.50;;;;;;;-0.51;100.00;93794.22;2124527;27;20034;-84
2021/10/10 04:02:13;;;;;;;13.55;10.15;;;;;;;-0.39;100.00;93801.34;2132455;27;20022;-82
2021/10/10 04:03:16;;;;;;;13.52;10.60;;;;;;;-0.41;100.00;93800.88;2123858;27;20054;-82
2021/10/10 04:04:17;;;;;;;16.60;10.43;;;;;;;-0.48;100.00;93793.56;2107185;28;20459;-83
2021/10/10 04:06:20;;;;;;;14.77;10.93;;;;;;;-0.45;100.00;93798.16;2115443;28;20030;-82
2021/10/10 04:07:22;;;;;;;13.93;9.52;;;;;;;-0.68;100.00;93797.81;2106714;28;20036;-82
2021/10/10 04:08:23;;;;;;;16.30;11.13;;;;;;;-0.61;100.00;93798.06;2107359;28;20024;-83
2021/10/10 04:09:24;;;;;;;14.40;10.77;;;;;;;-0.55;100.00;93799.34;2106868;28;20027;-83
2021/10/10 04:10:26;;;;;;;20.02;10.65;;;;;;;-0.61;100.00;93794.66;2098889;28;20016;-83
2021/10/10 04:11:27;;;;;;;16.85;10.75;;;;;;;-0.72;100.00;93798.81;2103672;28;20023;-84
2021/10/10 04:12:28;;;;;;;14.75;10.68;;;;;;;-0.68;100.00;93797.06;2106966;28;20027;-81
2021/10/10 04:13:29;;;;;;;15.25;10.52;;;;;;;-0.74;100.00;93796.50;2115351;28;20399;-83
2021/10/10 04:14:30;;;;;;;14.27;10.38;;;;;;;-0.64;100.00;93798.69;2107111;28;20020;-81
2021/10/10 04:15:30;;;;;;;13.63;11.30;;;;;;;-0.64;100.00;93796.06;2121270;27;20078;-82
2021/10/10 04:16:31;;;;;;;13.68;10.43;;;;;;;-0.61;100.00;93792.03;2123921;27;20015;-82
2021/10/10 04:17:32;;;;;;;14.52;11.05;;;;;;;-0.62;100.00;93785.22;2106893;28;20020;-82
2021/10/10 04:18:34;;;;;;;14.57;10.57;;;;;;;-0.49;100.00;93799.13;2106887;28;20024;-81
2021/10/10 04:19:35;;;;;;;13.52;10.68;;;;;;;-0.67;100.00;93801.22;2115343;28;20438;-83
2021/10/10 04:20:35;;;;;;;19.05;11.38;;;;;;;-0.62;100.00;93793.09;2107041;28;20048;-83
2021/10/10 04:21:36;;;;;;;15.35;10.68;;;;;;;-0.59;100.00;93798.47;2098576;28;20020;-84
2021/10/10 04:22:39;;;;;;;16.50;10.90;;;;;;;-0.56;100.00;93797.84;2106878;28;20465;-83
2021/10/10 04:23:40;;;;;;;15.38;10.20;;;;;;;-0.70;100.00;93796.59;2107154;28;20020;-82
2021/10/10 04:24:40;;;;;;;15.80;10.57;;;;;;;-0.70;100.00;93799.22;2098632;28;20367;-82
2021/10/10 04:25:41;;;;;;;18.00;10.07;;;;;;;-0.67;100.00;93794.09;2099139;28;20052;-84
2021/10/10 04:26:42;;;;;;;15.63;10.85;;;;;;;-0.68;100.00;93795.19;2106965;28;20020;-83
2021/10/10 04:27:44;;;;;;;15.18;10.77;;;;;;;-0.71;100.00;93798.47;2106819;28;20081;-85
2021/10/10 04:28:45;;;;;;;17.55;10.70;;;;;;;-0.72;100.00;93802.19;2098983;28;20103;-84
2021/10/10 04:29:46;;;;;;;16.02;10.70;;;;;;;-0.65;100.00;93794.56;2107029;28;20023;-82
2021/10/10 04:30:47;;;;;;;17.52;10.20;;;;;;;-0.72;100.00;93796.94;2106034;28;20024;-84
2021/10/10 04:31:48;;;;;;;16.42;10.63;;;;;;;-0.75;100.00;93797.59;2115404;28;20098;-83
2021/10/10 04:32:49;;;;;;;14.80;10.80;;;;;;;-0.69;100.00;93790.28;2107057;28;20118;-83
2021/10/10 04:33:50;;;;;;;17.10;11.10;;;;;;;-0.73;100.00;93794.66;2098528;28;20016;-84
2021/10/10 04:34:50;;;;;;;14.18;10.75;;;;;;;-0.70;100.00;93791.34;2106986;28;20032;-83
2021/10/10 04:35:51;;;;;;;16.00;11.07;;;;;;;-0.53;100.00;93793.75;2107116;28;20093;-84
2021/10/10 04:36:52;;;;;;;16.05;10.30;;;;;;;-0.57;100.00;93785.81;2111591;28;20023;-85
2021/10/10 04:37:53;;;;;;;16.90;10.85;;;;;;;-0.70;100.00;93793.97;2115282;28;20016;-83
2021/10/10 04:38:54;;;;;;;18.40;10.50;;;;;;;-0.68;100.00;93795.19;2124685;27;20460;-83
2021/10/10 04:39:55;;;;;;;14.88;10.25;;;;;;;-0.67;100.00;93790.72;2115302;28;20051;-83
2021/10/10 04:40:56;;;;;;;15.73;11.00;;;;;;;-0.66;100.00;93786.97;2123918;27;20399;-84
2021/10/10 04:41:57;;;;;;;17.13;10.88;;;;;;;-0.60;100.00;93786.44;2123730;27;20015;-84
2021/10/10 04:42:58;;;;;;;16.20;11.35;;;;;;;-0.82;100.00;93781.63;2115308;28;20046;-82
2021/10/10 04:43:59;;;;;;;16.55;10.27;;;;;;;-0.81;100.00;93783.91;2115263;28;20059;-83
2021/10/10 04:45:00;;;;;;;14.85;10.35;;;;;;;-0.86;100.00;93778.88;2106866;28;20020;-85
2021/10/10 04:46:01;;;;;;;15.45;11.02;;;;;;;-0.75;100.00;93773.97;2106988;28;20026;-85
2021/10/10 04:47:04;;;;;;;16.13;11.63;;;;;;;-0.73;100.00;93771.78;2115416;28;20023;-83